createdAt,value
2023-04-15T00:02:16.545Z,3.85
2023-04-15T00:04:44.441Z,4.18
2023-04-15T00:07:11.766Z,3.90
2023-04-15T00:09:39.272Z,4.35
2023-04-15T00:12:06.709Z,3.83
2023-04-15T00:14:35.832Z,3.78
2023-04-15T00:17:04.888Z,3.40
2023-04-15T00:19:32.873Z,2.70
2023-04-15T00:22:00.877Z,3.08
2023-04-15T00:24:28.450Z,4.27
2023-04-15T00:26:55.747Z,5.60
2023-04-15T00:29:23.357Z,5.50
2023-04-15T00:31:51.183Z,4.97
2023-04-15T00:34:20.404Z,4.25
2023-04-15T00:36:47.890Z,4.37
2023-04-15T00:39:16.486Z,4.00
2023-04-15T00:41:43.794Z,4.78
2023-04-15T00:44:11.662Z,4.97
2023-04-15T00:46:40.269Z,5.35
2023-04-15T00:49:08.235Z,5.00
2023-04-15T00:51:37.268Z,5.15
2023-04-15T00:54:05.141Z,4.72
2023-04-15T00:56:36.213Z,5.35
2023-04-15T00:59:04.037Z,7.00
2023-04-15T01:01:33.197Z,6.30
2023-04-15T01:04:00.589Z,5.65
2023-04-15T01:06:28.598Z,4.97
2023-04-15T01:08:58.759Z,5.22
2023-04-15T01:11:26.969Z,5.25
2023-04-15T01:13:55.810Z,4.83
2023-04-15T01:16:23.168Z,5.40
2023-04-15T01:18:50.918Z,5.07
2023-04-15T01:21:19.653Z,7.00
2023-04-15T01:23:48.609Z,6.15
2023-04-15T01:26:17.626Z,5.90
2023-04-15T01:28:45.212Z,6.05
2023-04-15T01:31:14.120Z,5.95
2023-04-15T01:33:43.511Z,6.40
2023-04-15T01:36:11.160Z,5.40
2023-04-15T01:38:39.209Z,6.23
2023-04-15T01:41:08.242Z,5.60
2023-04-15T01:43:39.791Z,5.63
2023-04-15T01:46:07.384Z,5.50
2023-04-15T01:48:34.851Z,6.28
2023-04-15T01:51:02.393Z,6.03
2023-04-15T01:53:30.406Z,6.72
2023-04-15T01:55:57.771Z,6.20
2023-04-15T01:58:25.197Z,5.95
2023-04-15T02:00:54.409Z,6.43
2023-04-15T02:03:22.126Z,7.27
2023-04-15T02:05:49.667Z,7.28
2023-04-15T02:08:17.038Z,7.03
2023-04-15T02:10:44.442Z,6.50
2023-04-15T02:13:11.762Z,7.30
2023-04-15T02:15:39.002Z,6.77
2023-04-15T02:18:07.719Z,7.43
2023-04-15T02:20:36.636Z,6.45
2023-04-15T02:23:07.512Z,6.97
2023-04-15T02:25:34.806Z,6.38
2023-04-15T02:28:02.309Z,6.63
2023-04-15T02:30:29.752Z,6.75
2023-04-15T02:32:57.095Z,7.68
2023-04-15T02:35:26.116Z,7.50
2023-04-15T02:37:53.452Z,7.13
2023-04-15T02:40:21.068Z,7.50
2023-04-15T02:42:48.596Z,7.55
2023-04-15T02:45:15.898Z,7.43
2023-04-15T02:47:44.061Z,6.78
2023-04-15T02:50:13.340Z,7.03
2023-04-15T02:52:42.723Z,7.33
2023-04-15T02:55:10.328Z,7.10
2023-04-15T02:57:39.060Z,8.23
2023-04-15T03:00:09.955Z,6.53
2023-04-15T03:02:38.138Z,7.88
2023-04-15T03:05:07.337Z,6.37
2023-04-15T03:07:34.613Z,6.97
2023-04-15T03:10:03.669Z,7.20
2023-04-15T03:12:31.208Z,6.22
2023-04-15T03:14:58.584Z,6.45
2023-04-15T03:17:26.047Z,6.13
2023-04-15T03:19:53.674Z,8.30
2023-04-15T03:22:21.128Z,8.32
2023-04-15T03:24:48.415Z,7.40
2023-04-15T03:27:16.996Z,7.35
2023-04-15T03:29:44.306Z,7.30
2023-04-15T03:32:31.996Z,7.07
2023-04-15T03:34:59.448Z,6.70
2023-04-15T03:37:26.758Z,7.05
2023-04-15T03:39:53.987Z,11.70
2023-04-15T03:42:22.654Z,7.97
2023-04-15T03:44:50.025Z,7.60
2023-04-15T03:47:17.419Z,7.07
2023-04-15T03:49:44.905Z,8.52
2023-04-15T03:52:12.700Z,7.55
2023-04-15T03:54:39.983Z,6.83
2023-04-15T03:57:07.276Z,7.32
2023-04-15T03:59:36.035Z,7.65
2023-04-15T04:02:03.412Z,6.20
2023-04-15T04:04:31.141Z,6.43
2023-04-15T04:06:58.460Z,6.20
2023-04-15T04:09:26.049Z,7.07
2023-04-15T04:11:53.270Z,6.80
2023-04-15T04:14:20.716Z,7.03
2023-04-15T04:16:49.457Z,7.45
2023-04-15T04:19:19.695Z,7.33
2023-04-15T04:21:47.204Z,6.70
2023-04-15T04:24:14.694Z,7.63
2023-04-15T04:26:41.858Z,6.18
2023-04-15T04:29:09.382Z,7.80
2023-04-15T04:31:37.274Z,6.60
2023-04-15T04:34:06.270Z,6.93
2023-04-15T04:36:33.516Z,6.30
2023-04-15T04:39:01.661Z,7.15
2023-04-15T04:41:29.024Z,7.03
2023-04-15T04:43:56.609Z,7.13
2023-04-15T04:46:24.024Z,8.07
2023-04-15T04:48:51.976Z,6.35
2023-04-15T04:51:20.923Z,7.53
2023-04-15T04:53:48.206Z,6.85
2023-04-15T04:56:15.631Z,6.60
2023-04-15T04:58:42.986Z,6.40
2023-04-15T05:01:10.235Z,5.78
2023-04-15T05:03:38.395Z,7.22
2023-04-15T05:06:08.926Z,6.30
2023-04-15T05:08:39.897Z,7.60
2023-04-15T05:11:07.693Z,6.63
2023-04-15T05:13:34.940Z,7.72
2023-04-15T05:16:02.307Z,7.78
2023-04-15T05:18:29.854Z,9.40
2023-04-15T05:20:57.576Z,7.10
2023-04-15T05:23:25.607Z,8.82
2023-04-15T05:25:54.268Z,8.63
2023-04-15T05:28:22.027Z,7.85
2023-04-15T05:30:49.401Z,6.00
2023-04-15T05:33:16.756Z,6.83
2023-04-15T05:35:44.109Z,7.65
2023-04-15T05:38:11.491Z,6.53
2023-04-15T05:40:39.048Z,6.85
2023-04-15T05:43:07.694Z,7.70
2023-04-15T05:45:34.927Z,8.10
2023-04-15T05:48:02.408Z,9.88
2023-04-15T05:50:29.820Z,16.00
2023-04-15T05:52:57.357Z,12.80
2023-04-15T05:55:24.882Z,14.43
2023-04-15T05:57:52.405Z,9.10
2023-04-15T06:00:21.721Z,7.38
2023-04-15T06:02:49.227Z,7.20
2023-04-15T06:05:16.624Z,8.15
2023-04-15T06:07:45.582Z,6.80
2023-04-15T06:10:14.494Z,8.90
2023-04-15T06:12:41.716Z,9.18
2023-04-15T06:15:10.548Z,8.05
2023-04-15T06:17:39.278Z,7.00
2023-04-15T06:20:08.620Z,7.95
2023-04-15T06:22:37.784Z,7.03
2023-04-15T06:25:06.321Z,8.02
2023-04-15T06:27:33.731Z,11.43
2023-04-15T06:30:01.029Z,10.55
2023-04-15T06:32:28.496Z,12.13
2023-04-15T06:34:57.223Z,9.60
2023-04-15T06:37:24.589Z,9.93
2023-04-15T06:39:51.833Z,8.25
2023-04-15T06:42:19.269Z,7.38
2023-04-15T06:44:46.740Z,6.05
2023-04-15T06:47:14.873Z,7.90
2023-04-15T06:49:43.249Z,7.07
2023-04-15T06:52:13.042Z,6.50
2023-04-15T06:54:40.295Z,7.45
2023-04-15T06:57:07.931Z,6.18
2023-04-15T06:59:35.404Z,5.57
2023-04-15T07:02:02.733Z,6.25
2023-04-15T07:04:29.995Z,6.13
2023-04-15T07:06:57.498Z,6.07
2023-04-15T07:09:26.780Z,5.88
2023-04-15T07:11:54.030Z,5.87
2023-04-15T07:14:21.594Z,6.90
2023-04-15T07:16:48.848Z,6.10
2023-04-15T07:19:16.247Z,6.47
2023-04-15T07:21:43.683Z,7.60
2023-04-15T07:24:11.295Z,10.00
2023-04-15T07:26:40.548Z,10.35
2023-04-15T07:29:08.002Z,6.75
2023-04-15T07:31:37.143Z,6.75
2023-04-15T07:34:05.271Z,7.15
2023-04-15T07:36:32.695Z,8.07
2023-04-15T07:39:02.343Z,7.22
2023-04-15T07:41:30.319Z,8.07
2023-04-15T07:43:59.222Z,6.32
2023-04-15T07:46:27.647Z,7.68
2023-04-15T07:48:54.892Z,7.03
2023-04-15T07:51:22.301Z,7.18
2023-04-15T07:53:50.659Z,7.20
2023-04-15T07:56:17.974Z,7.35
2023-04-15T07:58:45.179Z,7.05
2023-04-15T08:01:14.119Z,6.20
2023-04-15T08:03:42.245Z,8.15
2023-04-15T08:06:09.758Z,8.50
2023-04-15T08:08:37.639Z,8.20
2023-04-15T08:11:05.664Z,5.78
2023-04-15T08:13:33.077Z,6.03
2023-04-15T08:16:21.384Z,5.65
2023-04-15T08:18:49.966Z,6.55
2023-04-15T08:21:18.839Z,5.15
2023-04-15T08:23:47.533Z,6.22
2023-04-15T08:26:14.936Z,5.67
2023-04-15T08:28:45.716Z,6.10
2023-04-15T08:31:13.564Z,6.82
2023-04-15T08:33:42.357Z,8.13
2023-04-15T08:36:09.750Z,6.80
2023-04-15T08:38:37.462Z,5.63
2023-04-15T08:41:11.972Z,7.75
2023-04-15T08:43:47.712Z,7.35
2023-04-15T08:46:16.791Z,5.50
2023-04-15T08:48:47.818Z,5.57
2023-04-15T08:51:16.299Z,6.17
2023-04-15T08:53:44.586Z,5.03
2023-04-15T08:56:14.380Z,5.85
2023-04-15T08:58:42.266Z,5.13
2023-04-15T09:01:10.232Z,4.70
2023-04-15T09:03:37.975Z,6.70
2023-04-15T09:06:07.215Z,5.30
2023-04-15T09:08:37.756Z,6.50
2023-04-15T09:11:05.309Z,8.68
2023-04-15T09:13:32.724Z,12.27
2023-04-15T09:16:03.741Z,18.13
2023-04-15T09:18:32.824Z,18.95
2023-04-15T09:21:08.994Z,7.72
2023-04-15T09:23:37.050Z,10.60
2023-04-15T09:26:05.731Z,8.25
2023-04-15T09:28:33.162Z,6.87
2023-04-15T09:31:02.790Z,8.73
2023-04-15T09:33:30.819Z,7.03
2023-04-15T09:36:00.472Z,6.28
2023-04-15T09:38:29.160Z,6.07
2023-04-15T09:40:56.497Z,7.57
2023-04-15T09:43:37.054Z,7.57
2023-04-15T09:46:04.278Z,8.00
2023-04-15T09:48:31.656Z,5.50
2023-04-15T09:51:00.735Z,6.13
2023-04-15T09:53:31.718Z,6.63
2023-04-15T09:56:03.544Z,7.35
2023-04-15T09:58:31.964Z,7.30
2023-04-15T10:01:00.681Z,5.97
2023-04-15T10:03:29.774Z,6.32
2023-04-15T10:05:58.440Z,8.37
2023-04-15T10:08:28.334Z,5.40
2023-04-15T10:10:57.831Z,5.88
2023-04-15T10:13:28.525Z,6.50
2023-04-15T10:15:58.495Z,6.70
2023-04-15T10:18:27.457Z,5.87
2023-04-15T10:20:55.774Z,6.72
2023-04-15T10:23:24.594Z,6.18
2023-04-15T10:25:54.476Z,6.53
2023-04-15T10:28:23.334Z,6.18
2023-04-15T10:30:52.164Z,6.20
2023-04-15T10:33:22.742Z,7.03
2023-04-15T10:35:51.894Z,6.55
2023-04-15T10:38:36.631Z,6.35
2023-04-15T10:41:15.809Z,6.85
2023-04-15T10:43:53.638Z,6.83
2023-04-15T10:46:35.390Z,8.05
2023-04-15T10:49:08.045Z,6.15
2023-04-15T10:51:41.738Z,6.38
2023-04-15T10:54:13.450Z,6.28
2023-04-15T10:56:42.203Z,7.27
2023-04-15T10:59:11.017Z,7.78
2023-04-15T11:01:52.316Z,7.68
2023-04-15T11:04:53.733Z,6.47
2023-04-15T11:07:50.644Z,7.25
2023-04-15T11:10:51.973Z,7.27
2023-04-15T11:13:27.266Z,7.20
2023-04-15T11:16:05.376Z,7.20
2023-04-15T11:18:34.709Z,8.18
2023-04-15T11:21:06.416Z,7.22
2023-04-15T11:23:39.525Z,6.53
2023-04-15T11:26:11.822Z,7.43
2023-04-15T11:28:41.728Z,5.95
2023-04-15T11:31:12.229Z,6.60
2023-04-15T11:33:46.983Z,5.85
2023-04-15T11:36:14.480Z,6.37
2023-04-15T11:38:47.520Z,6.88
2023-04-15T11:41:14.905Z,6.43
2023-04-15T11:43:42.557Z,6.43
2023-04-15T11:46:11.179Z,7.82
2023-04-15T11:48:43.632Z,6.57
2023-04-15T11:51:12.830Z,8.95
2023-04-15T11:53:41.995Z,8.60
2023-04-15T11:56:10.884Z,9.60
2023-04-15T11:58:39.400Z,8.57
2023-04-15T12:01:07.476Z,7.10
2023-04-15T12:03:41.010Z,6.57
2023-04-15T12:06:12.610Z,5.93
2023-04-15T12:09:10.279Z,6.82
2023-04-15T12:11:40.536Z,9.02
2023-04-15T12:14:10.843Z,8.23
2023-04-15T12:16:48.989Z,5.43
2023-04-15T12:19:22.848Z,5.55
2023-04-15T12:21:50.408Z,7.30
2023-04-15T12:24:23.113Z,13.00
2023-04-15T12:26:52.045Z,8.67
2023-04-15T12:29:19.953Z,5.68
2023-04-15T12:31:51.740Z,7.00
2023-04-15T12:34:28.009Z,4.65
2023-04-15T12:36:55.470Z,6.40
2023-04-15T12:39:24.371Z,5.37
2023-04-15T12:41:51.787Z,3.20
2023-04-15T12:44:19.389Z,3.60
2023-04-15T12:46:46.955Z,3.00
2023-04-15T12:49:20.018Z,7.95
2023-04-15T12:51:49.476Z,3.37
2023-04-15T12:54:17.075Z,3.65
2023-04-15T12:56:46.667Z,4.57
2023-04-15T12:59:14.213Z,4.15
2023-04-15T13:01:41.553Z,3.05
2023-04-15T13:04:09.438Z,2.93
2023-04-15T13:06:37.187Z,5.65
2023-04-15T13:09:06.712Z,3.50
2023-04-15T13:11:34.679Z,3.92
2023-04-15T13:14:02.925Z,4.15
2023-04-15T13:16:30.802Z,5.23
2023-04-15T13:18:58.116Z,4.05
2023-04-15T13:21:25.610Z,4.25
2023-04-15T13:23:52.891Z,3.55
2023-04-15T13:26:21.969Z,7.97
2023-04-15T13:28:49.393Z,6.10
2023-04-15T13:31:16.725Z,5.38
2023-04-15T13:33:43.988Z,5.35
2023-04-15T13:36:11.389Z,4.90
2023-04-15T13:38:38.735Z,5.13
2023-04-15T13:41:06.353Z,6.43
2023-04-15T13:43:35.054Z,5.28
2023-04-15T13:46:02.764Z,13.48
2023-04-15T13:48:30.170Z,6.47
2023-04-15T13:50:57.615Z,5.05
2023-04-15T13:53:28.196Z,7.30
2023-04-15T13:56:06.582Z,5.85
2023-04-15T13:58:35.684Z,4.18
2023-04-15T14:01:05.788Z,6.25
2023-04-15T14:03:34.933Z,4.47
2023-04-15T14:06:02.482Z,6.40
2023-04-15T14:08:30.657Z,4.70
2023-04-15T14:10:58.168Z,4.50
2023-04-15T14:13:25.417Z,4.93
2023-04-15T14:15:54.100Z,6.80
2023-04-15T14:18:21.354Z,5.57
2023-04-15T14:20:48.712Z,5.47
2023-04-15T14:23:16.300Z,4.88
2023-04-15T14:25:45.018Z,4.57
2023-04-15T14:28:13.523Z,6.50
2023-04-15T14:30:40.950Z,6.47
2023-04-15T14:33:09.921Z,4.78
2023-04-15T14:35:38.030Z,4.43
2023-04-15T14:38:08.252Z,4.97
2023-04-15T14:40:35.438Z,4.97
2023-04-15T14:43:02.695Z,4.90
2023-04-15T14:45:30.565Z,4.75
2023-04-15T14:47:58.008Z,8.18
2023-04-15T14:50:26.676Z,6.28
2023-04-15T14:52:53.962Z,9.20
2023-04-15T14:55:21.461Z,5.00
2023-04-15T14:57:48.750Z,8.80
2023-04-15T15:00:16.502Z,6.03
2023-04-15T15:02:44.103Z,7.10
2023-04-15T15:05:12.309Z,6.18
2023-04-15T15:07:41.253Z,5.90
2023-04-15T15:10:08.866Z,6.72
2023-04-15T15:12:36.399Z,6.30
2023-04-15T15:15:12.460Z,8.45
2023-04-15T15:17:43.537Z,8.88
2023-04-15T15:20:11.510Z,10.13
2023-04-15T15:22:40.301Z,9.10
2023-04-15T15:25:07.756Z,8.32
2023-04-15T15:27:37.705Z,8.40
2023-04-15T15:30:07.049Z,14.07
2023-04-15T15:32:34.752Z,10.60
2023-04-15T15:35:02.187Z,17.77
2023-04-15T15:37:30.693Z,17.35
2023-04-15T15:40:00.924Z,12.32
2023-04-15T15:42:31.571Z,13.10
2023-04-15T15:44:58.812Z,9.60
2023-04-15T15:47:27.005Z,8.85
2023-04-15T15:49:54.997Z,7.50
2023-04-15T15:52:22.656Z,8.02
2023-04-15T15:54:49.843Z,7.40
2023-04-15T15:57:18.455Z,11.03
2023-04-15T15:59:46.445Z,10.57
2023-04-15T16:02:14.523Z,13.40
2023-04-15T16:04:43.490Z,10.10
2023-04-15T16:07:14.645Z,7.85
2023-04-15T16:09:42.770Z,11.83
2023-04-15T16:12:10.615Z,10.10
2023-04-15T16:14:39.514Z,9.13
2023-04-15T16:17:06.843Z,14.45
2023-04-15T16:19:33.989Z,15.40
2023-04-15T16:22:01.877Z,13.07
2023-04-15T16:24:29.935Z,8.82
2023-04-15T16:26:59.442Z,7.70
2023-04-15T16:29:26.975Z,8.55
2023-04-15T16:31:56.413Z,17.05
2023-04-15T16:34:23.853Z,20.03
2023-04-15T16:36:51.076Z,10.45
2023-04-15T16:39:19.866Z,12.60
2023-04-15T16:41:47.063Z,14.50
2023-04-15T16:44:14.529Z,12.43
2023-04-15T16:46:41.941Z,13.80
2023-04-15T16:49:11.605Z,13.75
2023-04-15T16:51:38.874Z,14.10
2023-04-15T16:54:06.480Z,13.80
2023-04-15T16:56:33.685Z,13.32
2023-04-15T16:59:01.524Z,16.93
2023-04-15T17:01:29.625Z,15.48
2023-04-15T17:03:57.040Z,13.05
2023-04-15T17:06:26.823Z,10.63
2023-04-15T17:08:54.397Z,9.93
2023-04-15T17:11:22.398Z,9.70
2023-04-15T17:13:50.988Z,10.10
2023-04-15T17:16:18.472Z,8.98
2023-04-15T17:18:47.492Z,9.43
2023-04-15T17:21:16.693Z,9.98
2023-04-15T17:23:45.515Z,12.60
2023-04-15T17:26:12.980Z,13.05
2023-04-15T17:28:40.434Z,13.50
2023-04-15T17:31:07.929Z,9.65
2023-04-15T17:33:55.952Z,9.07
2023-04-15T17:36:23.474Z,8.50
2023-04-15T17:38:54.215Z,8.70
2023-04-15T17:41:21.436Z,8.73
2023-04-15T17:43:48.937Z,12.90
2023-04-15T17:46:16.542Z,11.75
2023-04-15T17:48:44.084Z,12.50
2023-04-15T17:51:12.927Z,11.38
2023-04-15T17:53:40.691Z,10.25
2023-04-15T17:56:09.594Z,10.02
2023-04-15T17:58:39.252Z,12.07
2023-04-15T18:01:06.922Z,12.87
2023-04-15T18:03:34.610Z,19.10
2023-04-15T18:06:02.143Z,19.77
2023-04-15T18:08:29.513Z,14.27
2023-04-15T18:10:56.736Z,12.13
2023-04-15T18:13:25.460Z,10.00
2023-04-15T18:15:53.280Z,10.77
2023-04-15T18:18:21.017Z,10.18
2023-04-15T18:20:48.466Z,9.10
2023-04-15T18:23:15.696Z,9.52
2023-04-15T18:25:43.847Z,11.30
2023-04-15T18:28:11.434Z,11.90
2023-04-15T18:30:40.634Z,17.00
2023-04-15T18:33:08.091Z,34.88
2023-04-15T18:35:36.594Z,25.25
2023-04-15T18:38:05.131Z,22.63
2023-04-15T18:40:32.518Z,19.20
2023-04-15T18:43:00.262Z,18.15
2023-04-15T18:45:27.840Z,20.23
2023-04-15T18:47:56.870Z,18.45
2023-04-15T18:50:24.465Z,25.00
2023-04-15T18:52:52.075Z,34.80
2023-04-15T18:55:19.625Z,41.50
2023-04-15T18:57:48.599Z,37.72
2023-04-15T19:00:17.352Z,38.40
2023-04-15T19:02:45.143Z,36.40
2023-04-15T19:05:14.376Z,31.70
2023-04-15T19:07:42.002Z,23.60
2023-04-15T19:10:10.498Z,19.65
2023-04-15T19:12:37.855Z,19.30
2023-04-15T19:15:06.666Z,19.00
2023-04-15T19:17:33.917Z,23.30
2023-04-15T19:20:01.176Z,28.60
2023-04-15T19:22:31.088Z,18.27
2023-04-15T19:24:58.866Z,22.02
2023-04-15T19:27:27.370Z,27.40
2023-04-15T19:29:54.988Z,13.02
2023-04-15T19:32:22.667Z,6.50
2023-04-15T19:34:50.192Z,13.23
2023-04-15T19:37:18.012Z,13.10
2023-04-15T19:39:47.099Z,10.40
2023-04-15T19:42:14.706Z,8.50
2023-04-15T19:44:42.973Z,6.93
2023-04-15T19:47:11.175Z,8.57
2023-04-15T19:49:38.857Z,8.18
2023-04-15T19:52:06.387Z,5.07
2023-04-15T19:54:34.119Z,4.60
2023-04-15T19:57:02.750Z,5.07
2023-04-15T19:59:30.384Z,4.60
2023-04-15T20:01:58.022Z,5.82
2023-04-15T20:04:26.112Z,7.40
2023-04-15T20:06:53.860Z,10.98
2023-04-15T20:09:21.435Z,9.35
2023-04-15T20:12:46.058Z,7.10
2023-04-15T20:14:37.893Z,8.57
2023-04-15T20:17:05.512Z,8.13
2023-04-15T20:19:32.979Z,7.65
2023-04-15T20:22:00.736Z,7.93
2023-04-15T20:24:28.240Z,6.90
2023-04-15T20:26:57.637Z,7.18
2023-04-15T20:29:25.154Z,7.20
2023-04-15T20:31:54.268Z,6.45
2023-04-15T20:34:21.857Z,9.65
2023-04-15T20:36:49.308Z,18.15
2023-04-15T20:39:18.169Z,10.40
2023-04-15T20:41:46.087Z,8.17
2023-04-15T20:44:13.428Z,7.47
2023-04-15T20:46:41.276Z,6.95
2023-04-15T20:49:10.086Z,5.85
2023-04-15T20:51:38.132Z,5.32
2023-04-15T20:54:06.378Z,5.87
2023-04-15T20:56:34.018Z,6.97
2023-04-15T20:59:01.796Z,7.03
2023-04-15T21:01:29.265Z,7.45
2023-04-15T21:03:56.551Z,12.43
2023-04-15T21:06:27.183Z,10.73
2023-04-15T21:08:54.643Z,13.52
2023-04-15T21:11:43.073Z,15.07
2023-04-15T21:14:09.973Z,14.85
2023-04-15T21:16:37.183Z,15.45
2023-04-15T21:19:04.683Z,11.20
2023-04-15T21:21:34.073Z,9.85
2023-04-15T21:24:01.327Z,11.02
2023-04-15T21:26:28.537Z,8.48
2023-04-15T21:28:56.445Z,7.88
2023-04-15T21:31:23.770Z,7.63
2023-04-15T21:33:51.246Z,7.85
2023-04-15T21:36:18.458Z,8.85
2023-04-15T21:38:47.094Z,7.22
2023-04-15T21:41:14.618Z,7.40
2023-04-15T21:43:41.784Z,7.57
2023-04-15T21:46:21.822Z,7.22
2023-04-15T21:48:52.770Z,7.60
2023-04-15T21:51:21.940Z,6.60
2023-04-15T21:53:50.793Z,7.38
2023-04-15T21:56:17.985Z,7.23
2023-04-15T21:58:45.190Z,8.98
2023-04-15T22:01:12.445Z,8.10
2023-04-15T22:03:40.120Z,7.93
2023-04-15T22:06:07.572Z,11.63
2023-04-15T22:08:41.736Z,10.57
2023-04-15T22:11:28.497Z,10.15
2023-04-15T22:13:57.433Z,9.80
2023-04-15T22:16:25.369Z,10.70
2023-04-15T22:18:52.824Z,8.52
2023-04-15T22:21:20.034Z,8.77
2023-04-15T22:23:49.121Z,6.82
2023-04-15T22:26:16.354Z,6.18
2023-04-15T22:28:45.615Z,5.93
2023-04-15T22:31:13.845Z,6.05
2023-04-15T22:33:41.510Z,5.63
2023-04-15T22:36:08.781Z,5.60
2023-04-15T22:38:36.190Z,5.13
2023-04-15T22:41:03.483Z,7.32
2023-04-15T22:43:30.899Z,13.10
2023-04-15T22:46:00.424Z,15.07
2023-04-15T22:48:27.808Z,14.73
2023-04-15T22:50:56.038Z,12.93
2023-04-15T22:53:23.302Z,13.40
2023-04-15T22:55:51.833Z,13.20
2023-04-15T22:58:19.024Z,11.17
2023-04-15T23:00:46.473Z,13.18
2023-04-15T23:03:15.306Z,8.32
2023-04-15T23:05:42.701Z,10.45
2023-04-15T23:08:10.146Z,8.90
2023-04-15T23:10:40.096Z,8.47
2023-04-15T23:13:07.345Z,10.13
2023-04-15T23:15:34.516Z,11.07
2023-04-15T23:18:02.565Z,10.52
2023-04-15T23:20:31.184Z,8.48
2023-04-15T23:22:58.360Z,9.07
2023-04-15T23:25:25.555Z,9.10
2023-04-15T23:27:52.875Z,7.60
2023-04-15T23:30:20.078Z,8.00
2023-04-15T23:32:47.324Z,8.73
2023-04-15T23:35:14.865Z,8.50
2023-04-15T23:37:43.485Z,8.80
2023-04-15T23:40:12.237Z,10.13
2023-04-15T23:42:39.521Z,7.05
2023-04-15T23:45:07.942Z,7.00
2023-04-15T23:47:35.263Z,8.17
2023-04-15T23:50:02.503Z,6.57
2023-04-15T23:52:29.831Z,6.85
2023-04-15T23:54:58.741Z,7.43
2023-04-15T23:57:26.007Z,5.85
2023-04-15T23:59:53.462Z,6.47
